Weather at General Mitchell International Airport

Public forecast

Using degrees Fahrenheit for public forecast. Weather courtesy of forecast.io.

Current aviation weather report (METAR) for General Mitchell International Airport

Retrieved 2021/05/10 17:52 UTC (22 minutes ago):

KMKE 101752Z 04008KT 10SM SCT040 BKN050 09/00 A3019 RMK AO2 SLP227 60001 T00890000 10089 20056 50001

Aviation forecast (TAF) for General Mitchell International Airport

Retrieved 2021/05/10 12:22 UTC (6 hours ago):

TAF KMKE 101120Z 1012/1118 04006KT P6SM VCSH OVC060 FM101500 04007KT P6SM BKN060 FM110000 10005KT P6SM SCT070 FM110300 02005KT P6SM SKC FM111200 35005KT P6SM SKC